createdAt,value
2023-05-19T00:02:27.376Z,87.82
2023-05-19T00:05:13.240Z,85.62
2023-05-19T00:07:59.913Z,85.93
2023-05-19T00:10:43.748Z,86.84
2023-05-19T00:13:27.554Z,88.12
2023-05-19T00:16:13.974Z,89.25
2023-05-19T00:19:00.332Z,89.46
2023-05-19T00:21:43.747Z,88.89
2023-05-19T00:24:26.853Z,88.05
2023-05-19T00:27:09.979Z,88.51
2023-05-19T00:29:53.120Z,87.79
2023-05-19T00:32:37.777Z,86.37
2023-05-19T00:35:21.969Z,88.15
2023-05-19T00:38:05.074Z,88.41
2023-05-19T00:40:48.980Z,88.04
2023-05-19T00:43:34.489Z,88.18
2023-05-19T00:46:17.809Z,87.30
2023-05-19T00:49:02.350Z,87.95
2023-05-19T00:51:45.679Z,87.18
2023-05-19T00:54:29.055Z,88.09
2023-05-19T00:57:12.344Z,86.84
2023-05-19T00:59:55.570Z,85.40
2023-05-19T01:02:40.095Z,88.43
2023-05-19T01:05:24.975Z,89.77
2023-05-19T01:08:08.222Z,88.28
2023-05-19T01:10:51.370Z,90.01
2023-05-19T01:13:35.732Z,90.75
2023-05-19T01:16:30.946Z,90.20
2023-05-19T01:19:30.852Z,89.43
2023-05-19T01:22:24.394Z,89.36
2023-05-19T01:25:28.751Z,88.92
2023-05-19T01:28:33.321Z,89.15
2023-05-19T01:31:19.686Z,89.21
2023-05-19T01:34:04.785Z,89.90
2023-05-19T01:36:50.464Z,89.03
2023-05-19T01:39:34.651Z,89.46
2023-05-19T01:42:19.231Z,89.76
2023-05-19T01:45:02.347Z,89.83
2023-05-19T01:47:53.549Z,91.12
2023-05-19T01:50:36.684Z,90.98
2023-05-19T01:53:19.788Z,90.97
2023-05-19T01:56:02.935Z,92.39
2023-05-19T01:58:48.304Z,91.59
2023-05-19T02:01:36.006Z,90.83
2023-05-19T02:04:26.135Z,90.72
2023-05-19T02:07:16.668Z,92.18
2023-05-19T02:10:05.759Z,91.98
2023-05-19T02:12:53.928Z,92.75
2023-05-19T02:15:42.533Z,93.02
2023-05-19T02:18:25.797Z,93.25
2023-05-19T02:21:13.366Z,92.55
2023-05-19T02:23:56.533Z,93.20
2023-05-19T02:26:39.613Z,93.04
2023-05-19T02:29:23.188Z,94.69
2023-05-19T02:32:08.059Z,94.69
2023-05-19T02:34:51.492Z,94.62
2023-05-19T02:37:36.067Z,95.06
2023-05-19T02:40:20.170Z,93.96
2023-05-19T02:43:03.537Z,94.31
2023-05-19T02:45:46.782Z,95.97
2023-05-19T02:48:29.950Z,96.81
2023-05-19T02:51:13.129Z,96.68
2023-05-19T02:53:57.580Z,96.97
2023-05-19T02:56:40.789Z,97.63
2023-05-19T02:59:25.633Z,99.11
2023-05-19T03:02:09.012Z,97.56
2023-05-19T03:04:52.234Z,99.07
2023-05-19T03:07:35.427Z,98.88
2023-05-19T03:10:20.229Z,98.75
2023-05-19T03:13:03.471Z,99.07
2023-05-19T03:15:46.742Z,99.90
2023-05-19T03:18:30.019Z,98.73
2023-05-19T03:21:13.341Z,97.68
2023-05-19T03:23:56.508Z,97.36
2023-05-19T03:26:41.118Z,95.11
2023-05-19T03:29:24.596Z,96.30
2023-05-19T03:34:58.016Z,95.06
2023-05-19T03:37:41.388Z,95.95
2023-05-19T03:40:24.656Z,96.10
2023-05-19T03:43:10.184Z,94.79
2023-05-19T03:45:53.763Z,94.29
2023-05-19T03:48:37.337Z,93.01
2023-05-19T03:51:20.853Z,94.01
2023-05-19T03:54:04.573Z,92.59
2023-05-19T03:56:47.835Z,92.32
2023-05-19T03:59:33.257Z,92.53
2023-05-19T04:02:17.325Z,90.95
2023-05-19T04:05:00.878Z,91.49
2023-05-19T04:07:46.662Z,90.30
2023-05-19T04:10:36.359Z,88.73
2023-05-19T04:13:19.760Z,87.60
2023-05-19T04:16:05.440Z,86.27
2023-05-19T04:18:48.922Z,86.56
2023-05-19T04:21:32.171Z,85.47
2023-05-19T04:24:15.448Z,85.62
2023-05-19T04:27:02.777Z,83.78
2023-05-19T04:29:48.513Z,82.64
2023-05-19T04:32:33.667Z,80.92
2023-05-19T04:35:17.636Z,78.13
2023-05-19T04:38:02.989Z,79.02
2023-05-19T04:40:46.416Z,76.82
2023-05-19T04:43:30.819Z,74.61
2023-05-19T04:46:14.639Z,72.81
2023-05-19T04:49:01.435Z,74.78
2023-05-19T04:51:46.390Z,74.55
2023-05-19T04:54:29.699Z,76.88
2023-05-19T04:57:13.017Z,76.42
2023-05-19T05:00:00.735Z,77.06
2023-05-19T05:02:44.097Z,76.80
2023-05-19T05:05:28.804Z,77.42
2023-05-19T05:08:15.306Z,76.58
2023-05-19T05:10:59.580Z,76.63
2023-05-19T05:13:43.884Z,76.78
2023-05-19T05:16:27.807Z,75.34
2023-05-19T05:19:11.724Z,76.27
2023-05-19T05:21:57.586Z,76.02
2023-05-19T05:24:41.564Z,76.09
2023-05-19T05:27:24.808Z,75.07
2023-05-19T05:30:09.429Z,74.65
2023-05-19T05:32:52.752Z,73.26
2023-05-19T05:35:36.295Z,72.94
2023-05-19T05:38:20.932Z,70.89
2023-05-19T05:41:04.169Z,70.38
2023-05-19T05:43:47.425Z,69.70
2023-05-19T05:46:30.834Z,68.83
2023-05-19T05:49:48.316Z,67.27
2023-05-19T05:52:35.821Z,67.53
2023-05-19T05:58:46.627Z,64.65
2023-05-19T06:01:35.991Z,63.83
2023-05-19T06:04:20.706Z,62.02
2023-05-19T06:07:04.102Z,61.18
2023-05-19T06:09:47.367Z,61.43
2023-05-19T06:12:32.081Z,60.36
2023-05-19T06:15:16.012Z,59.38
2023-05-19T06:17:59.467Z,58.85
2023-05-19T06:20:43.104Z,57.39
2023-05-19T06:23:27.126Z,60.92
2023-05-19T06:26:10.436Z,58.25
2023-05-19T06:28:55.138Z,55.90
2023-05-19T06:31:38.644Z,56.47
2023-05-19T06:34:22.740Z,58.13
2023-05-19T06:37:06.253Z,59.99
2023-05-19T06:39:49.750Z,63.66
2023-05-19T06:42:33.108Z,59.74
2023-05-19T06:45:22.667Z,57.87
2023-05-19T06:48:06.413Z,55.94
2023-05-19T06:50:52.972Z,54.16
2023-05-19T06:53:36.265Z,53.35
2023-05-19T06:56:19.796Z,55.04
2023-05-19T06:59:03.586Z,56.17
2023-05-19T07:01:48.445Z,55.67
2023-05-19T07:04:31.741Z,55.68
2023-05-19T07:07:19.422Z,55.68
2023-05-19T07:10:02.815Z,52.03
2023-05-19T07:12:46.146Z,49.09
2023-05-19T07:15:29.418Z,49.88
2023-05-19T07:18:14.087Z,48.75
2023-05-19T07:20:57.789Z,45.28
2023-05-19T07:23:40.989Z,42.95
2023-05-19T07:26:24.412Z,38.25
2023-05-19T07:29:07.590Z,34.15
2023-05-19T07:31:54.358Z,33.64
2023-05-19T07:34:41.482Z,35.03
2023-05-19T07:37:24.675Z,32.51
2023-05-19T07:40:09.477Z,32.11
2023-05-19T07:42:52.709Z,33.02
2023-05-19T07:45:36.235Z,32.00
2023-05-19T07:48:19.497Z,35.60
2023-05-19T07:51:04.234Z,35.08
2023-05-19T07:53:48.212Z,32.76
2023-05-19T07:56:31.469Z,25.79
2023-05-19T07:59:14.696Z,23.24
2023-05-19T08:01:57.924Z,21.91
2023-05-19T08:04:49.113Z,26.75
2023-05-19T08:07:47.531Z,23.96
2023-05-19T08:10:31.323Z,26.62
2023-05-19T08:13:14.851Z,28.61
2023-05-19T08:16:00.122Z,26.96
2023-05-19T08:18:44.451Z,26.08
2023-05-19T08:21:27.850Z,27.32
2023-05-19T08:24:12.703Z,27.17
2023-05-19T08:26:56.129Z,22.58
2023-05-19T08:29:39.754Z,19.73
2023-05-19T08:32:32.482Z,27.26
2023-05-19T08:35:15.984Z,24.24
2023-05-19T08:37:59.228Z,26.48
2023-05-19T08:40:46.193Z,25.97
2023-05-19T08:43:29.572Z,22.74
2023-05-19T08:46:17.000Z,23.04
2023-05-19T08:49:11.673Z,23.45
2023-05-19T08:52:02.494Z,22.13
2023-05-19T08:54:52.156Z,21.55
2023-05-19T08:57:38.483Z,19.13
2023-05-19T09:00:22.755Z,21.16
2023-05-19T09:03:18.244Z,20.90
2023-05-19T09:06:08.828Z,20.49
2023-05-19T09:08:52.265Z,17.76
2023-05-19T09:11:38.829Z,18.32
2023-05-19T09:14:24.439Z,16.42
2023-05-19T09:17:08.171Z,15.39
2023-05-19T09:19:54.806Z,15.11
2023-05-19T09:22:43.050Z,14.52
2023-05-19T09:25:26.850Z,13.29
2023-05-19T09:28:10.328Z,13.74
2023-05-19T09:31:02.893Z,14.07
2023-05-19T09:33:46.975Z,15.19
2023-05-19T09:36:31.072Z,14.23
2023-05-19T09:39:15.825Z,17.91
2023-05-19T09:41:59.101Z,15.44
2023-05-19T09:44:43.619Z,14.67
2023-05-19T09:47:29.364Z,15.05
2023-05-19T09:50:14.356Z,18.88
2023-05-19T09:52:58.605Z,14.49
2023-05-19T09:55:43.655Z,13.47
2023-05-19T09:58:28.039Z,14.03
2023-05-19T10:01:11.463Z,14.54
2023-05-19T10:03:57.763Z,14.84
2023-05-19T10:06:41.615Z,15.15
2023-05-19T10:09:26.994Z,23.18
2023-05-19T10:12:12.428Z,22.31
2023-05-19T10:14:56.556Z,20.92
2023-05-19T10:17:41.177Z,16.14
2023-05-19T10:20:27.766Z,15.86
2023-05-19T10:23:11.114Z,17.36
2023-05-19T10:25:57.798Z,15.83
2023-05-19T10:28:44.834Z,14.76
2023-05-19T10:31:28.827Z,17.54
2023-05-19T10:34:33.451Z,18.49
2023-05-19T10:37:30.094Z,16.12
2023-05-19T10:40:20.974Z,15.35
2023-05-19T10:43:17.011Z,16.29
2023-05-19T10:46:00.343Z,21.36
2023-05-19T10:48:46.858Z,23.08
2023-05-19T10:51:32.754Z,26.96
2023-05-19T10:54:17.906Z,27.76
2023-05-19T10:57:01.854Z,30.55
2023-05-19T10:59:46.279Z,30.64
2023-05-19T11:02:41.645Z,34.02
2023-05-19T11:05:30.804Z,32.66
2023-05-19T11:08:14.701Z,34.22
2023-05-19T11:11:14.383Z,30.10
2023-05-19T11:13:57.913Z,30.00
2023-05-19T11:16:43.335Z,32.17
2023-05-19T11:19:30.899Z,32.64
2023-05-19T11:22:15.490Z,31.14
2023-05-19T11:24:59.276Z,31.69
2023-05-19T11:27:47.675Z,32.31
2023-05-19T11:30:31.341Z,33.88
2023-05-19T11:33:15.308Z,36.99
2023-05-19T11:35:59.590Z,39.78
2023-05-19T11:38:43.731Z,44.99
2023-05-19T11:41:28.447Z,50.11
2023-05-19T11:44:13.211Z,52.47
2023-05-19T11:46:56.594Z,56.74
2023-05-19T11:49:39.980Z,60.57
2023-05-19T11:52:24.644Z,60.94
2023-05-19T11:55:09.825Z,59.36
2023-05-19T11:58:05.093Z,61.65
2023-05-19T12:00:51.774Z,57.92
2023-05-19T12:03:36.035Z,56.38
2023-05-19T12:06:19.578Z,56.35
2023-05-19T12:09:03.384Z,59.21
2023-05-19T12:11:46.692Z,59.99
2023-05-19T12:14:32.232Z,61.22
2023-05-19T12:17:18.112Z,60.24
2023-05-19T12:20:01.632Z,59.14
2023-05-19T12:22:45.391Z,59.41
2023-05-19T12:25:29.966Z,56.84
2023-05-19T12:28:13.241Z,55.82
2023-05-19T12:30:59.027Z,53.75
2023-05-19T12:33:43.722Z,54.04
2023-05-19T12:36:28.656Z,52.71
2023-05-19T12:39:11.948Z,53.14
2023-05-19T12:41:55.133Z,53.37
2023-05-19T12:44:39.638Z,51.43
2023-05-19T12:47:23.341Z,50.40
2023-05-19T12:50:09.742Z,50.62
2023-05-19T12:52:53.423Z,50.50
2023-05-19T12:55:42.957Z,50.19
2023-05-19T12:58:26.744Z,48.39
2023-05-19T13:01:19.534Z,47.58
2023-05-19T13:04:05.427Z,47.83
2023-05-19T13:06:51.028Z,47.22
2023-05-19T13:09:36.628Z,46.30
2023-05-19T13:12:20.732Z,44.77
2023-05-19T13:15:04.031Z,46.70
2023-05-19T13:17:47.807Z,46.91
2023-05-19T13:20:31.996Z,48.45
2023-05-19T13:23:19.849Z,47.88
2023-05-19T13:26:05.000Z,48.46
2023-05-19T13:28:48.422Z,49.29
2023-05-19T13:31:31.699Z,48.60
2023-05-19T13:34:14.878Z,48.17
2023-05-19T13:36:58.097Z,47.97
2023-05-19T13:39:42.700Z,47.06
2023-05-19T13:42:26.071Z,46.03
2023-05-19T13:49:14.453Z,46.35
2023-05-19T13:52:01.267Z,45.38
2023-05-19T13:58:53.743Z,45.02
2023-05-19T14:01:37.317Z,43.89
2023-05-19T14:04:20.668Z,43.07
2023-05-19T14:07:04.379Z,43.69
2023-05-19T14:09:47.816Z,43.39
2023-05-19T14:12:41.593Z,43.13
2023-05-19T14:15:35.577Z,42.70
2023-05-19T14:18:18.866Z,41.79
2023-05-19T14:21:01.980Z,41.38
2023-05-19T14:23:45.162Z,41.21
2023-05-19T14:26:29.373Z,39.85
2023-05-19T14:29:12.665Z,39.71
2023-05-19T14:31:57.489Z,40.00
2023-05-19T14:34:40.739Z,38.38
2023-05-19T14:37:24.417Z,38.14
2023-05-19T14:40:08.834Z,37.98
2023-05-19T14:42:52.148Z,37.35
2023-05-19T14:45:35.424Z,38.41
2023-05-19T14:48:21.069Z,37.49
2023-05-19T14:51:04.971Z,38.29
2023-05-19T14:53:50.518Z,39.04
2023-05-19T14:56:33.955Z,39.07
2023-05-19T14:59:17.903Z,40.40
2023-05-19T15:02:02.084Z,40.41
2023-05-19T15:04:46.781Z,41.62
2023-05-19T15:07:30.279Z,41.39
2023-05-19T15:10:13.584Z,41.51
2023-05-19T15:12:58.099Z,41.59
2023-05-19T15:15:42.675Z,42.73
2023-05-19T15:18:26.171Z,42.43
2023-05-19T15:21:11.093Z,42.89
2023-05-19T15:23:54.533Z,43.49
2023-05-19T15:26:41.364Z,43.69
2023-05-19T15:29:24.615Z,43.27
2023-05-19T15:32:09.078Z,43.08
2023-05-19T15:34:53.769Z,43.02
2023-05-19T15:37:38.674Z,43.19
2023-05-19T15:40:22.285Z,44.66
2023-05-19T15:43:08.670Z,44.89
2023-05-19T15:45:55.311Z,45.00
2023-05-19T15:48:40.986Z,44.82
2023-05-19T15:51:24.840Z,44.67
2023-05-19T15:54:09.546Z,45.21
2023-05-19T15:56:53.377Z,44.80
2023-05-19T15:59:37.467Z,44.91
2023-05-19T16:02:21.123Z,45.28
2023-05-19T16:05:04.615Z,45.97
2023-05-19T16:07:47.846Z,46.45
2023-05-19T16:10:35.323Z,46.90
2023-05-19T16:13:18.859Z,47.18
2023-05-19T16:16:02.194Z,47.63
2023-05-19T16:18:45.704Z,47.19
2023-05-19T16:21:29.225Z,47.81
2023-05-19T16:24:12.570Z,46.58
2023-05-19T16:27:02.928Z,46.77
2023-05-19T16:29:46.199Z,46.97
2023-05-19T16:32:29.667Z,46.76
2023-05-19T16:35:14.024Z,46.38
2023-05-19T16:37:57.257Z,46.31
2023-05-19T16:40:40.925Z,45.68
2023-05-19T16:43:26.414Z,45.88
2023-05-19T16:46:12.267Z,45.74
2023-05-19T16:48:55.519Z,45.73
2023-05-19T16:51:41.119Z,45.67
2023-05-19T16:54:24.207Z,45.80
2023-05-19T16:57:07.385Z,45.23
2023-05-19T16:59:52.210Z,45.83
2023-05-19T17:02:37.821Z,46.53
2023-05-19T17:05:21.282Z,46.66
2023-05-19T17:08:04.556Z,47.12
2023-05-19T17:10:49.109Z,46.66
2023-05-19T17:13:36.254Z,46.23
2023-05-19T17:16:20.934Z,47.80
2023-05-19T17:19:04.749Z,49.17
2023-05-19T17:21:48.231Z,51.03
2023-05-19T17:24:33.347Z,52.46
2023-05-19T17:27:17.189Z,53.94
2023-05-19T17:30:00.659Z,54.76
2023-05-19T17:32:45.800Z,55.24
2023-05-19T17:35:29.146Z,56.34
2023-05-19T17:38:12.294Z,57.21
2023-05-19T17:40:59.064Z,57.66
2023-05-19T17:43:42.856Z,57.35
2023-05-19T17:46:26.527Z,56.62
2023-05-19T17:49:13.201Z,58.80
2023-05-19T17:51:57.304Z,56.11
2023-05-19T17:54:41.210Z,56.10
2023-05-19T17:57:27.131Z,56.31
2023-05-19T18:00:11.785Z,57.90
2023-05-19T18:02:57.127Z,58.60
2023-05-19T18:05:43.388Z,59.39
2023-05-19T18:08:27.419Z,59.20
2023-05-19T18:11:18.449Z,59.18
2023-05-19T18:14:01.772Z,59.23
2023-05-19T18:16:45.661Z,58.80
2023-05-19T18:19:29.099Z,59.83
2023-05-19T18:22:15.069Z,61.60
2023-05-19T18:24:59.003Z,63.49
2023-05-19T18:27:43.866Z,64.86
2023-05-19T18:30:27.132Z,65.54
2023-05-19T18:33:11.056Z,66.66
2023-05-19T18:35:54.296Z,68.74
2023-05-19T18:38:38.853Z,66.66
2023-05-19T18:41:22.118Z,66.92
2023-05-19T18:44:08.011Z,67.78
2023-05-19T18:46:51.234Z,68.20
2023-05-19T18:49:34.735Z,69.12
2023-05-19T18:52:19.498Z,70.54
2023-05-19T18:55:05.272Z,70.00
2023-05-19T18:57:48.694Z,70.37
2023-05-19T19:00:33.133Z,70.88
2023-05-19T19:03:17.133Z,72.25
2023-05-19T19:06:01.557Z,73.16
2023-05-19T19:08:45.098Z,74.23
2023-05-19T19:11:29.897Z,72.76
2023-05-19T19:14:13.129Z,71.21
2023-05-19T19:16:56.351Z,70.81
2023-05-19T19:19:39.796Z,69.61
2023-05-19T19:22:23.315Z,68.85
2023-05-19T19:25:07.283Z,69.81
2023-05-19T19:27:51.880Z,69.71
2023-05-19T19:30:35.686Z,69.51
2023-05-19T19:33:19.238Z,70.22
2023-05-19T19:36:03.036Z,69.64
2023-05-19T19:38:46.205Z,69.01
2023-05-19T19:41:29.959Z,68.74
2023-05-19T19:44:14.815Z,68.68
2023-05-19T19:46:58.492Z,69.23
2023-05-19T19:49:42.341Z,69.49
2023-05-19T19:52:28.779Z,70.14
2023-05-19T19:55:12.365Z,71.28
2023-05-19T19:57:55.656Z,70.12
2023-05-19T20:00:40.594Z,70.02
2023-05-19T20:03:23.888Z,69.76
2023-05-19T20:06:08.532Z,70.20
2023-05-19T20:08:51.896Z,70.25
2023-05-19T20:11:35.728Z,72.61
2023-05-19T20:14:19.542Z,73.66
2023-05-19T20:17:04.701Z,75.72
2023-05-19T20:19:50.697Z,76.24
2023-05-19T20:22:34.026Z,77.30
2023-05-19T20:25:17.388Z,77.05
2023-05-19T20:28:00.612Z,76.94
2023-05-19T20:30:43.800Z,76.89
2023-05-19T20:33:29.953Z,77.57
2023-05-19T20:36:13.470Z,77.20
2023-05-19T20:38:56.735Z,77.64
2023-05-19T20:41:39.980Z,77.62
2023-05-19T20:44:23.240Z,78.32
2023-05-19T20:47:08.259Z,78.56
2023-05-19T20:49:54.024Z,78.68
2023-05-19T20:52:37.410Z,79.56
2023-05-19T20:55:20.786Z,80.61
2023-05-19T20:58:04.052Z,80.35
2023-05-19T21:01:04.231Z,78.86
2023-05-19T21:03:55.808Z,79.71
2023-05-19T21:06:40.400Z,78.85
2023-05-19T21:09:25.083Z,78.51
2023-05-19T21:12:08.665Z,77.27
2023-05-19T21:14:52.090Z,78.25
2023-05-19T21:17:35.318Z,77.95
2023-05-19T21:20:18.903Z,78.64
2023-05-19T21:23:03.714Z,78.28
2023-05-19T21:25:47.035Z,80.13
2023-05-19T21:28:30.329Z,80.04
2023-05-19T21:31:13.620Z,80.29
2023-05-19T21:33:57.183Z,79.87
2023-05-19T21:36:40.720Z,80.37
2023-05-19T21:39:25.450Z,80.69
2023-05-19T21:42:12.019Z,80.88
2023-05-19T21:44:55.532Z,81.64
2023-05-19T21:47:38.742Z,81.81
2023-05-19T21:50:22.055Z,81.94
2023-05-19T21:53:05.697Z,81.83
2023-05-19T21:55:50.498Z,83.07
2023-05-19T21:58:33.745Z,83.07
2023-05-19T22:01:16.968Z,82.77
2023-05-19T22:04:00.386Z,83.08
2023-05-19T22:06:43.929Z,83.59
2023-05-19T22:09:29.409Z,83.16
2023-05-19T22:12:14.287Z,83.71
2023-05-19T22:15:00.058Z,84.00
2023-05-19T22:17:43.916Z,84.11
2023-05-19T22:20:27.185Z,83.91
2023-05-19T22:23:10.878Z,85.20
2023-05-19T22:25:54.373Z,84.14
2023-05-19T22:28:42.538Z,84.20
2023-05-19T22:31:26.387Z,84.42
2023-05-19T22:34:09.601Z,84.81
2023-05-19T22:36:52.985Z,84.62
2023-05-19T22:39:36.318Z,85.32
2023-05-19T22:42:19.836Z,83.69
2023-05-19T22:45:04.638Z,83.44
2023-05-19T22:47:49.477Z,83.12
2023-05-19T22:50:32.940Z,82.88
2023-05-19T22:53:16.347Z,83.66
2023-05-19T22:55:59.668Z,82.93
2023-05-19T22:58:42.864Z,83.89
2023-05-19T23:01:27.594Z,83.41
2023-05-19T23:04:11.593Z,84.32
2023-05-19T23:06:54.862Z,84.52
2023-05-19T23:09:38.601Z,85.29
2023-05-19T23:12:21.916Z,85.76
2023-05-19T23:15:05.748Z,85.70
2023-05-19T23:17:50.364Z,86.27
2023-05-19T23:20:34.462Z,87.54
2023-05-19T23:23:18.160Z,88.03
2023-05-19T23:26:01.349Z,87.07
2023-05-19T23:28:44.863Z,87.37
2023-05-19T23:31:28.177Z,87.00
2023-05-19T23:34:13.323Z,87.65
2023-05-19T23:36:56.650Z,87.44
2023-05-19T23:39:39.884Z,88.60
2023-05-19T23:42:23.014Z,86.90
2023-05-19T23:45:07.088Z,85.81
2023-05-19T23:47:50.306Z,86.81
2023-05-19T23:50:34.953Z,86.92
2023-05-19T23:53:18.381Z,87.17
2023-05-19T23:56:02.040Z,86.59
2023-05-19T23:58:45.319Z,87.50
